This is the latest recevied weather packets stored in our database for station/object OK1KZE-6. If no packets are shown the sender has not sent any weather packets the latest 1 day(s).
| Time | Temp. | Humidity | Pressure | Rain* | Wind** | Luminosity | Snow |
|---|---|---|---|---|---|---|---|
| 1777995007 | 22.22° C | 47% | 1007.9 hPa | - | 10.28 m/s, 103° | - | - |
| 1777994707 | 21.67° C | 48% | 1008 hPa | - | 7.6 m/s, 100° | - | - |
| 1777994407 | 21.11° C | 48% | 1007.9 hPa | - | 10.28 m/s, 126° | - | - |
| 1777994108 | 21.67° C | 46% | 1008 hPa | - | 10.28 m/s, 116° | - | - |
| 1777993807 | 22.22° C | 44% | 1008.3 hPa | - | 6.71 m/s, 107° | - | - |
| 1777993508 | 23.33° C | 44% | 1008.3 hPa | - | 6.71 m/s, 100° | - | - |
| 1777993207 | 22.78° C | 44% | 1008.4 hPa | - | 4.92 m/s, 100° | - | - |
| 1777992908 | 23.33° C | 44% | 1008.2 hPa | - | 6.71 m/s, 86° | - | - |
| 1777992607 | 22.78° C | 44% | 1008.4 hPa | - | 6.26 m/s, 91° | - | - |
| 1777992308 | 22.22° C | 44% | 1008.3 hPa | - | 6.26 m/s, 78° | - | - |
| 1777992007 | 22.22° C | 44% | 1008.5 hPa | - | 7.15 m/s, 86° | - | - |
| 1777991708 | 22.78° C | 43% | 1008.8 hPa | - | 5.36 m/s, 78° | - | - |
| 1777991407 | 22.78° C | 45% | 1008.6 hPa | - | 4.92 m/s, 82° | - | - |
| 1777991107 | 22.22° C | 44% | 1008.6 hPa | - | 5.81 m/s, 89° | - | - |
| 1777990807 | 22.22° C | 43% | 1008.6 hPa | - | 6.71 m/s, 93° | - | - |
| 1777990508 | 22.22° C | 47% | 1008.7 hPa | - | 5.36 m/s, 96° | - | - |
| 1777990208 | 22.22° C | 44% | 1008.7 hPa | - | 4.47 m/s, 80° | - | - |
| 1777989908 | 22.22° C | 45% | 1008.8 hPa | - | 5.36 m/s, 69° | - | - |
| 1777989607 | 22.22° C | 45% | 1008.9 hPa | - | 6.26 m/s, 69° | - | - |
| 1777989307 | -1.11° C | 100% | 1009 hPa | - | 0 m/s | - | - |
| 1777989008 | 22.78° C | 44% | 1008.8 hPa | - | 8.94 m/s, 84° | - | - |
| 1777988707 | 22.78° C | 44% | 1008.9 hPa | - | 8.94 m/s, 84° | - | - |
| 1777988407 | 22.78° C | 44% | 1009.1 hPa | - | 5.81 m/s, 109° | - | - |
| 1777988108 | -1.11° C | 100% | 1009 hPa | - | 0 m/s | - | - |
| 1777987808 | -1.11° C | 100% | 1008.7 hPa | - | 0 m/s | - | - |
* Rain since midnight (hover to see other rain measurements)
** Current wind speed in m/s (hover to see current wind gust speed)